Terminal Aerodrome Forecast
Issued by NWS

Current Version | Previous Version | Text Only | Print | Product List | Glossary On
Versions: 1 2 3 4 5 6 7 8 9 10 11 12 13 14 15 16 17 18 19 20 21 22 23 24
000
FTUS41 KOKX 110836 AAA
TAFHPN
TAF AMD
KHPN 110836Z 1109/1206 VRB04KT P6SM SCT060 BKN120
      TEMPO 1111/1113 6SM -SHRA BR BKN060
     FM111300 34005KT P6SM BKN060
     FM111500 30006KT P6SM SCT060
     FM120000 34005KT P6SM BKN250
     AMD NOT SKED=

USA.gov is the U.S. government's official web portal to all federal, state and local government web resources and services.